KBIH/BIH METAR and TAF weather

Enter ICAO airport designator
Station Type Date Time Source
KBIH METAR 2018/07/21 22:56 UTC NOAA

KBIH 212256Z AUTO 18014G20KT 10SM CLR 34/06 A3000 RMK AO2 LTG DSNT ALQDS SLP106 T03390056


Station Type Date Time Source
KBIH Decoded METAR 2018/07/21 22:56 UTC NOAA

BISHOP AIRPORT, CA, United States (KBIH) 37-22N 118-22W 1253M
Jul 21, 2018 - 06:56 PM EDT / 2018.07.21 2256 UTC
Wind: from the S (180 degrees) at 16 MPH (14 KT) gusting to 23 MPH (20 KT):0
Visibility: 10 mile(s):0
Sky conditions: clear
Weather: Lightning observed
Temperature: 93.0 F (33.9 C)
Dew Point: 42.1 F (5.6 C)
Relative Humidity: 17%
Pressure (altimeter): 30 in. Hg (1015 hPa)
ob: KBIH 212256Z AUTO 18014G20KT 10SM CLR 34/06 A3000 RMK AO2 LTG DSNT ALQDS SLP106 T03390056
cycle: 23

Station Type Date Time Source
KBIH TAF 2018/07/21 18:36 UTC NOAA

TAF KBIH 211732Z 2118/2218 VRB05KT P6SM SCT200
FM212000 17012G20KT P6SM VCTS SCT100CB BKN180
FM220200 35010KT P6SM -SHRA OVC100
FM220600 34007KT P6SM SCT100 BKN250


Example: see airport list